Time;durP1;ratioP1;P1;durP2;ratioP2;P2;SDS_P1;SDS_P2;PMS_P1;PMS_P2;Temp;Humidity;BMP_temperature;BMP_pressure;BME280_temperature;BME280_humidity;BME280_pressure;Samples;Min_cycle;Max_cycle;Signal;HPM_P1;HPM_P2
2021/01/19 00:00:02;;;;;;;10.70;5.50;;;6.10;99.90;;;;;;5018643;28;20510;-80
2021/01/19 00:02:28;;;;;;;13.93;5.10;;;6.20;99.90;;;;;;5018106;28;20108;-77
2021/01/19 00:04:54;;;;;;;11.48;5.10;;;6.20;99.90;;;;;;5017186;28;20053;-79
2021/01/19 00:07:22;;;;;;;7.97;4.80;;;6.20;99.90;;;;;;5016206;28;20366;-80
2021/01/19 00:09:48;;;;;;;10.70;5.00;;;6.20;99.90;;;;;;5017054;28;20130;-79
2021/01/19 00:12:14;;;;;;;11.20;4.40;;;6.30;99.90;;;;;;5018202;28;20084;-79
2021/01/19 00:14:43;;;;;;;10.23;5.88;;;6.30;99.90;;;;;;5016842;28;20125;-76
2021/01/19 00:17:10;;;;;;;8.80;5.50;;;6.30;99.90;;;;;;5015941;28;20112;-79
2021/01/19 00:19:36;;;;;;;10.25;6.10;;;6.30;99.90;;;;;;5016346;28;20068;-78
2021/01/19 00:22:03;;;;;;;13.77;6.35;;;6.30;99.90;;;;;;5016986;28;20099;-79
2021/01/19 00:24:30;;;;;;;10.73;6.60;;;6.30;99.90;;;;;;5018976;28;20069;-80
2021/01/19 00:26:56;;;;;;;11.57;6.18;;;6.30;99.90;;;;;;5018237;28;20092;-79
2021/01/19 00:29:23;;;;;;;11.63;6.25;;;6.30;99.90;;;;;;5016876;28;20132;-77
2021/01/19 00:31:49;;;;;;;11.32;5.82;;;6.30;99.90;;;;;;5017170;28;20100;-79
2021/01/19 00:34:16;;;;;;;12.02;6.15;;;6.20;99.90;;;;;;5014882;28;20585;-79
2021/01/19 00:36:42;;;;;;;8.60;5.55;;;6.10;99.90;;;;;;5017032;28;20136;-80
2021/01/19 00:39:09;;;;;;;9.80;6.20;;;6.20;99.90;;;;;;5024422;28;20077;-79
2021/01/19 00:41:37;;;;;;;12.10;5.38;;;6.20;99.90;;;;;;5017530;28;20050;-78
2021/01/19 00:44:03;;;;;;;11.63;5.50;;;6.10;99.90;;;;;;5016239;28;20077;-79
2021/01/19 00:46:29;;;;;;;13.43;5.68;;;6.00;99.90;;;;;;5014719;28;20132;-77
2021/01/19 00:48:56;;;;;;;7.78;5.07;;;6.00;99.90;;;;;;5016193;28;20145;-78
2021/01/19 00:51:22;;;;;;;9.70;5.28;;;6.10;99.90;;;;;;5017089;28;20096;-79
2021/01/19 00:53:49;;;;;;;10.48;5.55;;;6.00;99.90;;;;;;5017657;28;20070;-80
2021/01/19 00:56:15;;;;;;;10.57;4.82;;;6.00;99.90;;;;;;5002168;28;20582;-80
2021/01/19 00:58:43;;;;;;;8.85;4.55;;;6.00;99.90;;;;;;5002584;28;20093;-82
2021/01/19 01:01:10;;;;;;;9.07;4.60;;;6.00;99.90;;;;;;5007675;28;20407;-81
2021/01/19 01:03:36;;;;;;;10.02;5.03;;;6.00;99.90;;;;;;5009164;28;20100;-78
2021/01/19 01:06:03;;;;;;;6.32;4.00;;;6.00;99.90;;;;;;5009282;28;20081;-80
2021/01/19 01:08:29;;;;;;;6.40;4.60;;;6.00;99.90;;;;;;5019621;28;20109;-80
2021/01/19 01:10:56;;;;;;;6.93;3.95;;;6.00;99.90;;;;;;5018377;28;20578;-79
2021/01/19 01:13:22;;;;;;;9.10;4.30;;;6.00;99.90;;;;;;5025642;28;20077;-80
2021/01/19 01:15:49;;;;;;;9.07;4.13;;;6.00;99.90;;;;;;5025065;28;20074;-81
2021/01/19 01:18:16;;;;;;;8.38;4.20;;;6.00;99.90;;;;;;5025543;28;20489;-81
2021/01/19 01:20:42;;;;;;;7.18;4.00;;;6.00;99.90;;;;;;5033306;28;20046;-81
2021/01/19 01:23:13;;;;;;;6.20;3.90;;;6.00;99.90;;;;;;5026629;28;20513;-80
2021/01/19 01:25:40;;;;;;;11.07;4.40;;;5.90;99.90;;;;;;4999260;28;20053;-80
2021/01/19 01:28:06;;;;;;;12.38;4.55;;;5.90;99.90;;;;;;5000006;28;20464;-80
2021/01/19 01:30:33;;;;;;;8.23;3.83;;;5.90;99.90;;;;;;4998809;28;20085;-81
2021/01/19 01:33:00;;;;;;;7.97;4.30;;;5.90;99.90;;;;;;4999483;28;20082;-80
2021/01/19 01:35:26;;;;;;;7.05;4.20;;;5.90;99.90;;;;;;4999407;28;20521;-82
2021/01/19 01:37:54;;;;;;;4.50;3.38;;;5.90;99.90;;;;;;4997941;28;20137;-80
2021/01/19 01:40:22;;;;;;;7.50;4.32;;;5.90;99.90;;;;;;4999515;28;20088;-80
2021/01/19 01:42:50;;;;;;;7.25;4.40;;;5.90;99.90;;;;;;5009636;28;20081;-81
2021/01/19 01:45:20;;;;;;;8.68;4.20;;;5.90;99.90;;;;;;5018635;28;20053;-81
2021/01/19 01:47:48;;;;;;;8.95;3.90;;;6.00;99.90;;;;;;5019259;28;20052;-80
2021/01/19 01:50:16;;;;;;;9.05;4.35;;;5.90;99.90;;;;;;5018711;28;20130;-80
2021/01/19 01:52:43;;;;;;;8.02;4.15;;;5.90;99.90;;;;;;4999937;28;20081;-81
2021/01/19 01:55:11;;;;;;;11.48;4.82;;;6.00;99.90;;;;;;5000223;28;20129;-80
2021/01/19 01:57:38;;;;;;;8.35;4.05;;;6.00;99.90;;;;;;4999497;28;20065;-81
2021/01/19 02:00:06;;;;;;;7.25;3.70;;;6.00;99.90;;;;;;5000729;28;20054;-81
2021/01/19 02:02:32;;;;;;;9.00;4.45;;;6.00;99.90;;;;;;5003301;28;20088;-81
2021/01/19 02:04:59;;;;;;;9.55;4.05;;;5.90;99.90;;;;;;5006716;28;20074;-80
2021/01/19 02:07:38;;;;;;;5.35;3.80;;;6.00;99.90;;;;;;5002467;28;20073;-80
2021/01/19 02:10:10;;;;;;;8.00;3.80;;;6.00;99.90;;;;;;5003581;28;20050;-79
2021/01/19 02:12:44;;;;;;;6.57;2.93;;;6.00;99.90;;;;;;5005329;28;20074;-82
2021/01/19 02:15:11;;;;;;;6.47;3.75;;;6.00;99.90;;;;;;5012290;28;20074;-80
2021/01/19 02:17:47;;;;;;;8.43;4.10;;;6.00;99.90;;;;;;5011014;28;20057;-81
2021/01/19 02:20:56;;;;;;;6.55;4.03;;;6.00;99.90;;;;;;5009131;28;20498;-81
2021/01/19 02:23:37;;;;;;;8.15;3.90;;;6.00;99.90;;;;;;4995693;28;20137;-80
2021/01/19 02:26:23;;;;;;;8.65;4.43;;;5.90;99.90;;;;;;4995149;28;20125;-80
2021/01/19 02:28:53;;;;;;;10.52;4.50;;;5.80;99.90;;;;;;4994876;28;20189;-80
2021/01/19 02:31:33;;;;;;;9.07;4.60;;;5.80;99.90;;;;;;4994505;28;20141;-81
2021/01/19 02:34:12;;;;;;;9.55;4.75;;;5.70;99.90;;;;;;4994488;28;20137;-81
2021/01/19 02:36:49;;;;;;;9.68;4.38;;;5.80;99.90;;;;;;4993672;28;20142;-81
2021/01/19 02:39:25;;;;;;;8.73;4.40;;;5.60;99.90;;;;;;4993399;28;20188;-79
2021/01/19 02:41:53;;;;;;;12.07;5.00;;;5.50;99.90;;;;;;4993836;28;20081;-80
2021/01/19 02:44:22;;;;;;;15.40;5.28;;;5.50;99.90;;;;;;4996668;28;20070;-79
2021/01/19 02:46:52;;;;;;;10.52;4.60;;;5.40;99.90;;;;;;4999772;28;20541;-80
2021/01/19 02:49:20;;;;;;;8.13;4.40;;;5.40;99.90;;;;;;4998475;28;20492;-79
2021/01/19 02:51:47;;;;;;;11.70;4.63;;;5.40;99.90;;;;;;4999322;28;20459;-80
2021/01/19 02:54:15;;;;;;;10.50;4.45;;;5.30;99.90;;;;;;5000469;28;20050;-80
2021/01/19 02:56:55;;;;;;;10.02;4.78;;;5.30;99.90;;;;;;5002493;28;20097;-80
2021/01/19 02:59:30;;;;;;;10.90;4.78;;;5.20;99.90;;;;;;5001886;28;20082;-81
2021/01/19 03:02:01;;;;;;;9.55;4.55;;;5.20;99.90;;;;;;5002918;28;20054;-81
2021/01/19 03:04:31;;;;;;;11.60;4.60;;;5.20;99.90;;;;;;5000785;28;20073;-80
2021/01/19 03:07:02;;;;;;;11.70;4.30;;;5.10;99.90;;;;;;4998603;28;20081;-79
2021/01/19 03:09:30;;;;;;;8.93;4.70;;;5.10;99.90;;;;;;5004771;28;20054;-79
2021/01/19 03:11:59;;;;;;;10.43;4.30;;;5.20;99.90;;;;;;5006049;28;20046;-80
2021/01/19 03:14:26;;;;;;;9.50;3.72;;;5.20;99.90;;;;;;5006107;28;20096;-79
2021/01/19 03:16:53;;;;;;;9.23;4.35;;;5.20;99.90;;;;;;5007436;28;20445;-80
2021/01/19 03:19:20;;;;;;;8.77;4.20;;;5.20;99.90;;;;;;5006442;28;20109;-80
2021/01/19 03:21:47;;;;;;;14.43;4.45;;;5.20;99.90;;;;;;5006189;28;20084;-79
2021/01/19 03:24:14;;;;;;;9.35;4.80;;;5.20;99.90;;;;;;5002070;28;20180;-78
2021/01/19 03:26:40;;;;;;;15.15;5.13;;;5.30;99.90;;;;;;5009177;28;20057;-79
2021/01/19 03:29:07;;;;;;;18.10;5.80;;;5.20;99.90;;;;;;5002526;28;20137;-81
2021/01/19 03:31:33;;;;;;;12.38;5.55;;;5.20;99.90;;;;;;5003464;28;20054;-81
2021/01/19 03:33:59;;;;;;;14.25;5.80;;;5.20;99.90;;;;;;5003985;28;20407;-81
2021/01/19 03:36:26;;;;;;;14.10;7.93;;;5.20;99.90;;;;;;5003289;28;20046;-81
2021/01/19 03:38:53;;;;;;;11.50;5.60;;;5.20;99.90;;;;;;5002622;28;20057;-81
2021/01/19 03:41:19;;;;;;;17.42;5.85;;;5.30;99.90;;;;;;5012952;28;20074;-82
2021/01/19 03:43:46;;;;;;;12.43;5.90;;;5.20;99.90;;;;;;5013435;28;20112;-80
2021/01/19 03:46:12;;;;;;;14.85;5.75;;;5.30;99.90;;;;;;5004741;28;20089;-81
2021/01/19 03:48:38;;;;;;;16.17;5.35;;;5.30;99.90;;;;;;5004587;28;20061;-81
2021/01/19 03:51:05;;;;;;;12.00;5.45;;;5.40;99.90;;;;;;5007242;28;20054;-79
2021/01/19 03:53:31;;;;;;;8.40;4.97;;;5.40;99.90;;;;;;5009155;28;20096;-80
2021/01/19 03:55:59;;;;;;;9.13;4.40;;;5.30;99.90;;;;;;5007211;28;20089;-81
2021/01/19 03:58:25;;;;;;;13.95;5.93;;;5.40;99.90;;;;;;5013406;28;20074;-80
2021/01/19 04:00:51;;;;;;;11.20;5.35;;;5.40;99.90;;;;;;5004524;28;20074;-80
2021/01/19 04:03:18;;;;;;;17.92;6.20;;;5.40;99.90;;;;;;4996589;28;20141;-80
2021/01/19 04:05:44;;;;;;;13.07;5.35;;;5.40;99.90;;;;;;4997164;28;20129;-79
2021/01/19 04:08:10;;;;;;;12.63;5.40;;;5.40;99.90;;;;;;4997379;28;20473;-80
2021/01/19 04:10:37;;;;;;;11.85;5.47;;;5.40;99.90;;;;;;4996659;28;20204;-81
2021/01/19 04:13:04;;;;;;;9.70;4.70;;;5.50;99.90;;;;;;4998073;28;20118;-80
2021/01/19 04:15:31;;;;;;;8.88;4.78;;;5.50;99.90;;;;;;5008460;28;20046;-80
2021/01/19 04:17:57;;;;;;;15.15;5.63;;;5.50;99.90;;;;;;5007428;28;20077;-79
2021/01/19 04:20:24;;;;;;;14.52;4.90;;;5.50;99.90;;;;;;5006889;28;20101;-80
2021/01/19 04:22:51;;;;;;;10.50;5.53;;;5.60;99.90;;;;;;5007481;28;20072;-80
2021/01/19 04:25:17;;;;;;;14.73;5.00;;;5.50;99.90;;;;;;5007523;28;20073;-80
2021/01/19 04:27:44;;;;;;;9.85;5.15;;;5.50;99.90;;;;;;5002935;28;20113;-80
2021/01/19 04:30:12;;;;;;;11.18;5.10;;;5.50;99.90;;;;;;5002315;28;20097;-80
2021/01/19 04:32:38;;;;;;;9.07;4.63;;;5.50;99.90;;;;;;5003708;28;20051;-79
2021/01/19 04:35:06;;;;;;;14.43;4.93;;;5.50;99.90;;;;;;5002909;28;20070;-80
2021/01/19 04:37:32;;;;;;;11.27;4.57;;;5.40;99.90;;;;;;4998360;28;20546;-79
2021/01/19 04:39:59;;;;;;;12.23;4.93;;;5.50;99.90;;;;;;4997167;28;20480;-79
2021/01/19 04:42:28;;;;;;;10.70;5.10;;;5.60;99.90;;;;;;4999288;28;20046;-79
2021/01/19 04:44:55;;;;;;;15.20;5.43;;;5.50;99.90;;;;;;4999485;28;20137;-79
2021/01/19 04:47:22;;;;;;;18.38;5.68;;;5.60;99.90;;;;;;4998183;28;20133;-79
2021/01/19 04:49:52;;;;;;;11.15;6.05;;;5.50;99.90;;;;;;4998129;28;20089;-80
2021/01/19 04:52:21;;;;;;;13.75;5.95;;;5.50;99.90;;;;;;4999297;28;20048;-80
2021/01/19 04:55:02;;;;;;;13.55;5.47;;;5.50;99.90;;;;;;5014354;28;20042;-78
2021/01/19 04:57:32;;;;;;;11.75;5.88;;;5.50;99.90;;;;;;5012583;28;20054;-79
2021/01/19 05:00:01;;;;;;;21.55;6.82;;;5.50;99.90;;;;;;5014638;28;20077;-78
2021/01/19 05:03:11;;;;;;;14.55;7.95;;;5.50;99.90;;;;;;5015783;28;20150;-79
2021/01/19 05:05:59;;;;;;;20.15;7.45;;;5.50;99.90;;;;;;5015182;28;20069;-81
2021/01/19 05:08:31;;;;;;;15.40;7.47;;;5.60;99.90;;;;;;4986462;28;20081;-80
2021/01/19 05:10:59;;;;;;;13.32;6.53;;;5.60;99.90;;;;;;5014174;28;20449;-79
2021/01/19 05:13:50;;;;;;;15.55;7.55;;;5.60;99.90;;;;;;5014444;28;20145;-80
2021/01/19 05:16:19;;;;;;;14.93;7.50;;;5.60;99.90;;;;;;4999046;28;20100;-78
2021/01/19 05:18:47;;;;;;;17.65;6.53;;;5.60;99.90;;;;;;5015057;28;20054;-78
2021/01/19 05:21:14;;;;;;;14.48;6.25;;;5.50;99.90;;;;;;5015086;28;20804;-80
2021/01/19 05:23:41;;;;;;;18.95;7.25;;;5.60;99.90;;;;;;5016708;28;20085;-80
2021/01/19 05:26:09;;;;;;;21.20;9.45;;;5.60;99.90;;;;;;5025302;28;20046;-80
2021/01/19 05:28:38;;;;;;;19.58;8.57;;;5.60;99.90;;;;;;5037566;28;20053;-80
2021/01/19 05:31:17;;;;;;;21.02;8.38;;;5.60;99.90;;;;;;5037289;28;20061;-80
2021/01/19 05:33:44;;;;;;;18.73;7.50;;;5.60;99.90;;;;;;5038992;28;20540;-81
2021/01/19 05:36:12;;;;;;;17.00;6.75;;;5.70;99.90;;;;;;5038044;28;20463;-80
2021/01/19 05:38:48;;;;;;;11.80;5.70;;;5.70;99.90;;;;;;5037571;28;20092;-80
2021/01/19 05:41:30;;;;;;;13.93;6.25;;;5.60;99.90;;;;;;5057368;22;20136;-81
2021/01/19 05:43:56;;;;;;;14.23;4.97;;;5.70;99.90;;;;;;5033699;28;20049;-81
2021/01/19 05:46:27;;;;;;;12.30;5.47;;;5.70;99.90;;;;;;5037326;28;20133;-79
2021/01/19 05:48:58;;;;;;;14.30;5.38;;;5.70;99.90;;;;;;5041289;28;20084;-78
2021/01/19 05:51:28;;;;;;;10.40;4.00;;;5.80;99.90;;;;;;5037843;28;20052;-79
2021/01/19 05:53:56;;;;;;;11.00;4.70;;;5.80;99.90;;;;;;5036558;28;20060;-80
2021/01/19 05:56:23;;;;;;;7.43;4.10;;;5.80;99.90;;;;;;5036423;28;20567;-80
2021/01/19 05:58:50;;;;;;;9.68;3.33;;;5.80;99.90;;;;;;5036364;28;20553;-78
2021/01/19 06:01:30;;;;;;;8.80;3.63;;;5.90;99.90;;;;;;5036799;28;20133;-81
2021/01/19 06:03:58;;;;;;;7.80;2.92;;;5.80;99.90;;;;;;5036365;28;20409;-79
2021/01/19 06:06:27;;;;;;;6.90;2.85;;;5.90;99.90;;;;;;5036964;28;20049;-80
2021/01/19 06:09:00;;;;;;;4.50;2.90;;;5.90;99.90;;;;;;5036354;28;20053;-82
2021/01/19 06:11:27;;;;;;;5.85;2.83;;;5.90;99.90;;;;;;5035701;28;20085;-80
2021/01/19 06:13:55;;;;;;;6.28;3.08;;;5.90;99.90;;;;;;5035423;28;20137;-80
2021/01/19 06:16:23;;;;;;;9.50;2.80;;;6.00;99.90;;;;;;5035279;28;20081;-79
2021/01/19 06:18:49;;;;;;;4.47;2.38;;;6.00;99.90;;;;;;5034919;28;20049;-80
2021/01/19 06:21:33;;;;;;;7.70;2.83;;;6.00;99.90;;;;;;5035596;28;20139;-81
2021/01/19 06:23:59;;;;;;;9.27;3.28;;;6.00;99.90;;;;;;5036799;28;20132;-80
2021/01/19 06:26:25;;;;;;;9.45;5.53;;;6.00;99.90;;;;;;5041829;28;20080;-84
2021/01/19 06:28:52;;;;;;;7.35;3.25;;;6.00;99.90;;;;;;5040708;28;20091;-81
2021/01/19 06:31:21;;;;;;;7.85;4.65;;;6.00;99.90;;;;;;5039381;28;20480;-81
2021/01/19 06:33:49;;;;;;;6.13;3.47;;;6.00;99.90;;;;;;5039992;28;20080;-81
2021/01/19 06:36:17;;;;;;;6.72;3.63;;;6.10;99.90;;;;;;5038054;28;20075;-80
2021/01/19 06:38:45;;;;;;;7.18;3.53;;;6.00;99.90;;;;;;5035189;28;20049;-79
2021/01/19 06:41:16;;;;;;;5.10;3.75;;;6.00;99.90;;;;;;5036495;28;20103;-81
2021/01/19 06:43:46;;;;;;;3.80;2.63;;;6.00;99.90;;;;;;5038197;28;20429;-81
2021/01/19 06:46:14;;;;;;;4.05;2.80;;;6.00;99.90;;;;;;5040888;28;20069;-81
2021/01/19 06:48:42;;;;;;;7.85;2.30;;;6.10;99.90;;;;;;5037947;28;20053;-79
2021/01/19 06:51:11;;;;;;;5.38;2.70;;;6.10;99.90;;;;;;5042392;28;20057;-83
2021/01/19 06:53:43;;;;;;;3.55;2.33;;;6.10;99.90;;;;;;5048075;28;20436;-84
2021/01/19 06:56:16;;;;;;;5.47;3.95;;;6.10;99.90;;;;;;5044710;28;20076;-83
2021/01/19 06:58:54;;;;;;;2.85;2.45;;;6.20;99.90;;;;;;5044702;28;20449;-82
2021/01/19 07:01:22;;;;;;;4.80;3.05;;;6.20;99.90;;;;;;5044501;28;20068;-84
2021/01/19 07:03:52;;;;;;;3.90;2.80;;;6.30;99.90;;;;;;5042085;28;20088;-80
2021/01/19 07:06:23;;;;;;;4.53;3.13;;;6.40;99.90;;;;;;5040214;28;20110;-80
2021/01/19 07:09:27;;;;;;;6.28;3.25;;;6.30;99.90;;;;;;5042054;28;20053;-80
2021/01/19 07:12:16;;;;;;;4.90;2.95;;;6.30;99.90;;;;;;5040345;28;20049;-80
2021/01/19 07:14:52;;;;;;;3.33;2.13;;;6.20;99.90;;;;;;5041023;28;20061;-82
2021/01/19 07:17:19;;;;;;;4.78;2.30;;;6.20;99.90;;;;;;5043400;28;20073;-82
2021/01/19 07:19:49;;;;;;;5.72;2.42;;;6.10;99.90;;;;;;5044374;28;20089;-82
2021/01/19 07:22:57;;;;;;;5.68;3.00;;;6.20;99.90;;;;;;5043803;28;20057;-82
2021/01/19 07:25:24;;;;;;;3.22;2.33;;;6.10;99.90;;;;;;5027834;28;20099;-80
2021/01/19 07:27:51;;;;;;;3.92;2.90;;;6.10;99.90;;;;;;5043363;28;20068;-81
2021/01/19 07:30:20;;;;;;;6.55;2.60;;;6.10;99.90;;;;;;5043620;28;20126;-82
2021/01/19 07:32:50;;;;;;;6.05;2.90;;;6.10;99.90;;;;;;5044528;28;20056;-84
2021/01/19 07:35:17;;;;;;;7.25;3.28;;;6.10;99.90;;;;;;5044165;28;20048;-80
2021/01/19 07:37:44;;;;;;;3.60;2.67;;;6.10;99.90;;;;;;5044894;28;20073;-81
2021/01/19 07:40:18;;;;;;;5.60;2.55;;;6.10;99.90;;;;;;5044684;28;20085;-81
2021/01/19 07:42:45;;;;;;;6.40;3.58;;;6.00;99.90;;;;;;5044737;28;20076;-81
2021/01/19 07:45:13;;;;;;;4.30;3.10;;;6.00;99.90;;;;;;5043848;28;20077;-81
2021/01/19 07:47:41;;;;;;;10.82;3.38;;;6.00;99.90;;;;;;5042945;28;20053;-81
2021/01/19 07:50:12;;;;;;;3.40;2.40;;;6.00;99.90;;;;;;5043509;28;20068;-83
2021/01/19 07:52:40;;;;;;;9.35;3.00;;;6.00;99.90;;;;;;5044120;28;20049;-82
2021/01/19 07:55:21;;;;;;;4.68;2.65;;;5.90;99.90;;;;;;5042505;28;20081;-81
2021/01/19 07:57:49;;;;;;;5.82;2.83;;;5.90;99.90;;;;;;5043647;28;20163;-81
2021/01/19 08:00:23;;;;;;;4.72;2.80;;;5.80;99.90;;;;;;5044076;28;20077;-82
2021/01/19 08:02:49;;;;;;;5.03;2.67;;;5.90;99.90;;;;;;5044978;28;20073;-81
2021/01/19 08:05:27;;;;;;;4.25;2.83;;;5.90;99.90;;;;;;5043679;28;20068;-81
2021/01/19 08:07:56;;;;;;;5.03;2.83;;;5.90;99.90;;;;;;5042650;28;20053;-80
2021/01/19 08:10:24;;;;;;;6.70;2.65;;;5.90;99.90;;;;;;5043011;28;20067;-83
2021/01/19 08:12:52;;;;;;;4.90;3.22;;;5.80;99.90;;;;;;5042995;28;20053;-84
2021/01/19 08:15:21;;;;;;;3.58;2.88;;;5.80;99.90;;;;;;5042945;28;20541;-80
2021/01/19 08:17:51;;;;;;;4.03;2.75;;;5.80;99.90;;;;;;5042264;28;20049;-81
2021/01/19 08:20:29;;;;;;;4.93;3.08;;;5.80;99.90;;;;;;5042849;28;20081;-81
2021/01/19 08:22:57;;;;;;;4.55;2.58;;;5.70;99.90;;;;;;5042703;28;20107;-80
2021/01/19 08:25:28;;;;;;;5.43;2.75;;;5.80;99.90;;;;;;5043203;28;20076;-81
2021/01/19 08:27:58;;;;;;;11.98;3.25;;;5.80;99.90;;;;;;5043285;28;20064;-81
2021/01/19 08:30:26;;;;;;;8.13;2.85;;;5.80;99.90;;;;;;5042465;28;20050;-82
2021/01/19 08:32:54;;;;;;;7.07;3.10;;;5.90;99.90;;;;;;5044114;28;20049;-82
2021/01/19 08:35:21;;;;;;;6.80;3.90;;;5.90;99.90;;;;;;5044590;28;20143;-82
2021/01/19 08:37:53;;;;;;;6.85;3.42;;;5.90;99.90;;;;;;5049967;28;20105;-82
2021/01/19 08:40:24;;;;;;;3.85;2.58;;;5.90;99.90;;;;;;5045151;28;20053;-81
2021/01/19 08:42:52;;;;;;;5.38;3.65;;;5.90;99.90;;;;;;5045175;28;20053;-79
2021/01/19 08:45:27;;;;;;;8.02;3.60;;;5.90;99.90;;;;;;5051804;28;20049;-83
2021/01/19 08:47:55;;;;;;;4.30;2.97;;;6.00;99.90;;;;;;5026055;28;20057;-81
2021/01/19 08:50:22;;;;;;;7.45;3.05;;;6.00;99.90;;;;;;5012879;28;20085;-81
2021/01/19 08:52:50;;;;;;;5.82;2.75;;;6.00;99.90;;;;;;5015481;28;20042;-83
2021/01/19 08:55:19;;;;;;;4.95;2.58;;;6.10;99.90;;;;;;5011317;28;20497;-81
2021/01/19 08:57:49;;;;;;;10.18;3.05;;;6.10;99.90;;;;;;5010749;28;20043;-82
2021/01/19 09:00:27;;;;;;;5.07;2.70;;;6.10;99.90;;;;;;5008613;28;20120;-83
2021/01/19 09:02:57;;;;;;;3.05;2.15;;;6.10;99.90;;;;;;5006551;28;20097;-82
2021/01/19 09:05:26;;;;;;;2.15;1.80;;;6.10;99.90;;;;;;5009007;28;20450;-82
2021/01/19 09:07:52;;;;;;;2.58;2.30;;;6.10;99.90;;;;;;5010973;28;20210;-81
2021/01/19 09:10:23;;;;;;;4.57;2.58;;;6.10;99.90;;;;;;5014867;28;20051;-82
2021/01/19 09:12:51;;;;;;;4.72;2.83;;;6.20;99.90;;;;;;5012212;28;20043;-83
2021/01/19 09:15:18;;;;;;;4.68;2.40;;;6.20;99.90;;;;;;5013768;28;20506;-83
2021/01/19 09:17:56;;;;;;;3.03;2.17;;;6.20;99.90;;;;;;5010769;28;20049;-82
2021/01/19 09:20:24;;;;;;;5.93;1.83;;;6.20;99.90;;;;;;5015989;28;20057;-81
2021/01/19 09:22:51;;;;;;;4.68;2.67;;;6.10;99.90;;;;;;5012246;28;20077;-82
2021/01/19 09:25:20;;;;;;;1.98;1.40;;;6.20;99.90;;;;;;5010612;28;20092;-80
2021/01/19 09:27:47;;;;;;;6.85;3.70;;;6.20;99.90;;;;;;5013208;28;20106;-83
2021/01/19 09:30:15;;;;;;;4.28;2.50;;;6.20;99.90;;;;;;5009307;28;20050;-82
2021/01/19 09:32:43;;;;;;;3.58;2.30;;;6.20;99.90;;;;;;5013645;28;20085;-82
2021/01/19 09:35:12;;;;;;;3.95;2.03;;;6.20;99.90;;;;;;5011811;28;20058;-82
2021/01/19 09:37:39;;;;;;;3.47;2.60;;;6.30;99.90;;;;;;5012719;28;20072;-81
2021/01/19 09:40:07;;;;;;;2.67;2.33;;;6.30;99.90;;;;;;5010606;28;20081;-81
2021/01/19 09:42:36;;;;;;;1.90;1.73;;;6.30;99.90;;;;;;5012480;28;20092;-82
2021/01/19 09:45:04;;;;;;;3.25;1.70;;;6.30;99.90;;;;;;5014539;28;20050;-83
2021/01/19 09:47:33;;;;;;;2.90;2.15;;;6.30;99.90;;;;;;5007276;28;20112;-78
2021/01/19 09:50:00;;;;;;;2.40;1.58;;;6.30;99.90;;;;;;5003331;28;20503;-79
2021/01/19 09:52:31;;;;;;;2.80;1.75;;;6.30;99.90;;;;;;4997854;28;20141;-79
2021/01/19 09:55:09;;;;;;;4.45;2.25;;;6.40;99.90;;;;;;5009134;28;20058;-79
2021/01/19 09:57:35;;;;;;;3.85;2.38;;;6.40;99.90;;;;;;5008030;28;20110;-79
2021/01/19 10:00:03;;;;;;;3.03;2.08;;;6.40;99.90;;;;;;5013081;28;20045;-79
2021/01/19 10:02:29;;;;;;;4.13;2.35;;;6.50;99.90;;;;;;5006445;28;20065;-80
2021/01/19 10:05:00;;;;;;;6.38;1.80;;;6.50;99.90;;;;;;5002927;28;20097;-80
2021/01/19 10:07:29;;;;;;;1.55;1.02;;;6.60;99.90;;;;;;5005156;28;20078;-81
2021/01/19 10:10:09;;;;;;;4.03;1.73;;;6.60;99.90;;;;;;5008063;28;20111;-81
2021/01/19 10:12:36;;;;;;;3.17;1.25;;;6.70;99.90;;;;;;5002830;28;20054;-80
2021/01/19 10:15:03;;;;;;;3.67;1.33;;;6.90;99.90;;;;;;5006480;28;20085;-79
2021/01/19 10:17:31;;;;;;;2.70;1.50;;;7.00;99.90;;;;;;5005702;28;20054;-80
2021/01/19 10:20:12;;;;;;;3.13;1.60;;;7.10;99.90;;;;;;5017676;28;20132;-80
2021/01/19 10:22:40;;;;;;;2.40;1.17;;;7.10;99.90;;;;;;5018612;28;20046;-79
2021/01/19 10:25:10;;;;;;;2.40;1.42;;;7.20;99.90;;;;;;5018240;28;20081;-80
2021/01/19 10:27:42;;;;;;;5.05;1.60;;;7.20;99.90;;;;;;5016559;28;20085;-81
2021/01/19 10:30:10;;;;;;;3.13;1.45;;;7.10;99.90;;;;;;5017650;28;20098;-80
2021/01/19 10:32:48;;;;;;;2.83;1.30;;;7.20;99.90;;;;;;5018168;28;20065;-81
2021/01/19 10:35:25;;;;;;;2.42;1.45;;;7.30;99.90;;;;;;5020197;28;20088;-80
2021/01/19 10:37:53;;;;;;;2.67;1.20;;;7.20;99.90;;;;;;5021947;28;20081;-79
2021/01/19 10:40:20;;;;;;;1.73;1.30;;;7.30;99.90;;;;;;5022092;28;20085;-79
2021/01/19 10:42:46;;;;;;;3.97;1.73;;;7.30;99.90;;;;;;5023652;28;20054;-81
2021/01/19 10:45:23;;;;;;;2.33;1.25;;;7.40;99.90;;;;;;5020782;28;20096;-80
2021/01/19 10:47:49;;;;;;;1.33;1.17;;;7.40;99.90;;;;;;5018787;28;20089;-80
2021/01/19 10:50:17;;;;;;;1.75;1.23;;;7.40;99.90;;;;;;5020251;28;20050;-81
2021/01/19 10:52:53;;;;;;;3.42;1.80;;;7.50;99.90;;;;;;5020600;28;20454;-80
2021/01/19 10:55:20;;;;;;;1.77;1.42;;;7.50;99.90;;;;;;5021435;28;20085;-80
2021/01/19 10:57:47;;;;;;;2.42;1.45;;;7.50;99.90;;;;;;5018214;28;20050;-80
2021/01/19 11:00:14;;;;;;;2.92;1.60;;;7.60;99.90;;;;;;5018023;28;20045;-81
2021/01/19 11:02:41;;;;;;;3.60;1.60;;;7.60;99.90;;;;;;5019130;28;20477;-80
2021/01/19 11:05:08;;;;;;;2.58;1.77;;;7.70;99.90;;;;;;5017172;28;20080;-80
2021/01/19 11:07:34;;;;;;;4.28;2.08;;;7.70;99.90;;;;;;5016419;28;20093;-79
2021/01/19 11:10:01;;;;;;;2.25;1.58;;;7.80;99.90;;;;;;5017734;28;20073;-80
2021/01/19 11:12:28;;;;;;;2.53;1.63;;;7.80;99.90;;;;;;5020773;28;20088;-78
2021/01/19 11:14:54;;;;;;;4.28;1.30;;;7.80;99.90;;;;;;5019374;28;20054;-80
2021/01/19 11:17:21;;;;;;;2.47;1.35;;;7.80;99.90;;;;;;5017945;28;20089;-79
2021/01/19 11:19:48;;;;;;;3.05;1.83;;;7.80;99.90;;;;;;5019803;28;20184;-79
2021/01/19 11:22:19;;;;;;;1.75;1.50;;;7.80;99.90;;;;;;5021988;28;20050;-80
2021/01/19 11:24:48;;;;;;;6.07;2.15;;;7.90;99.90;;;;;;5020536;28;20050;-79
2021/01/19 11:27:14;;;;;;;2.70;1.80;;;7.80;99.90;;;;;;5020959;28;20046;-80
2021/01/19 11:29:41;;;;;;;1.85;1.35;;;7.90;99.90;;;;;;5024901;28;20069;-80
2021/01/19 11:32:08;;;;;;;3.65;1.52;;;7.90;99.90;;;;;;5026471;28;20053;-80
2021/01/19 11:34:34;;;;;;;3.17;2.30;;;7.90;99.90;;;;;;5025766;28;20118;-81
2021/01/19 11:37:00;;;;;;;3.20;2.05;;;7.90;99.90;;;;;;5024338;28;20077;-80
2021/01/19 11:42:05;;;;;;;2.30;1.60;;;8.00;99.90;;;;;;5060555;22;20125;-80
2021/01/19 11:44:32;;;;;;;4.20;2.00;;;8.00;99.90;;;;;;5022094;28;20422;-80
2021/01/19 11:47:04;;;;;;;2.53;2.13;;;8.00;99.90;;;;;;5023114;28;20421;-81
2021/01/19 11:49:31;;;;;;;2.15;1.88;;;8.10;99.90;;;;;;5022733;28;20426;-79
2021/01/19 11:51:58;;;;;;;2.55;1.55;;;8.10;99.90;;;;;;5002608;28;20054;-79
2021/01/19 11:54:25;;;;;;;3.03;1.80;;;8.10;99.90;;;;;;5003484;28;20054;-81
2021/01/19 11:56:52;;;;;;;4.03;2.22;;;8.10;99.90;;;;;;5001715;28;20069;-79
2021/01/19 11:59:19;;;;;;;3.45;2.50;;;8.10;99.90;;;;;;5003721;28;20221;-80
2021/01/19 12:01:54;;;;;;;3.42;2.15;;;8.10;99.90;;;;;;5003912;28;20050;-82
2021/01/19 12:04:22;;;;;;;6.07;2.15;;;8.10;99.90;;;;;;5004254;28;20054;-81
2021/01/19 12:06:49;;;;;;;3.13;2.17;;;8.10;99.90;;;;;;5003674;28;20073;-80
2021/01/19 12:09:16;;;;;;;3.13;1.90;;;8.10;99.90;;;;;;5004077;28;20058;-81
2021/01/19 12:11:43;;;;;;;2.58;1.80;;;8.10;99.90;;;;;;5004648;28;20061;-82
2021/01/19 12:14:11;;;;;;;2.45;1.70;;;8.10;99.90;;;;;;5005217;28;20096;-81
2021/01/19 12:16:38;;;;;;;3.83;2.17;;;8.10;99.90;;;;;;5004192;28;20054;-81
2021/01/19 12:19:09;;;;;;;2.95;2.10;;;8.10;99.90;;;;;;5010054;28;20050;-82
2021/01/19 12:21:37;;;;;;;3.75;1.48;;;8.10;99.90;;;;;;5008469;28;20046;-81
2021/01/19 12:24:05;;;;;;;3.45;1.67;;;8.20;99.90;;;;;;5003924;28;20054;-81
2021/01/19 12:26:31;;;;;;;3.67;2.10;;;8.20;99.90;;;;;;5003911;28;20046;-81
2021/01/19 12:28:58;;;;;;;3.60;1.88;;;8.20;99.90;;;;;;5023922;28;20085;-81
2021/01/19 12:31:27;;;;;;;2.47;2.03;;;8.30;99.90;;;;;;5023623;28;20100;-82
2021/01/19 12:33:56;;;;;;;3.88;2.28;;;8.30;99.90;;;;;;5023370;28;20096;-81
2021/01/19 12:36:25;;;;;;;4.45;2.45;;;8.30;99.90;;;;;;5022741;28;20042;-81
2021/01/19 12:38:52;;;;;;;5.65;2.00;;;8.30;99.90;;;;;;5024523;28;20054;-81
2021/01/19 12:41:19;;;;;;;2.78;1.92;;;8.30;99.90;;;;;;5021119;28;20394;-80
2021/01/19 12:43:45;;;;;;;3.42;2.28;;;8.30;99.90;;;;;;5021624;28;20061;-81
2021/01/19 12:46:12;;;;;;;7.28;3.00;;;8.30;99.90;;;;;;5018542;28;20050;-78
2021/01/19 12:48:39;;;;;;;5.22;2.42;;;8.40;99.90;;;;;;5021368;28;20165;-78
2021/01/19 12:51:06;;;;;;;4.00;2.65;;;8.40;99.90;;;;;;5021539;28;20096;-80
2021/01/19 12:53:32;;;;;;;3.00;1.83;;;8.40;99.90;;;;;;5020107;28;20104;-79
2021/01/19 12:55:59;;;;;;;3.40;2.60;;;8.40;99.90;;;;;;5019491;28;20105;-79
2021/01/19 12:58:26;;;;;;;4.13;2.20;;;8.40;99.90;;;;;;5019021;28;20130;-80
2021/01/19 13:00:52;;;;;;;2.50;1.95;;;8.40;99.90;;;;;;5019219;28;20081;-79
2021/01/19 13:03:19;;;;;;;5.43;2.85;;;8.40;99.90;;;;;;5019740;28;20222;-78
2021/01/19 13:05:45;;;;;;;2.92;2.20;;;8.40;99.90;;;;;;5018242;28;20072;-78